createdAt,value
2023-01-03T00:07:40.808Z,74.39
2023-01-03T00:12:07.533Z,74.01
2023-01-03T00:16:18.196Z,74.12
2023-01-03T00:20:21.493Z,73.71
2023-01-03T00:24:25.507Z,73.51
2023-01-03T00:28:29.020Z,73.65
2023-01-03T00:32:33.597Z,74.03
2023-01-03T00:36:37.780Z,73.89
2023-01-03T00:40:40.897Z,74.30
2023-01-03T00:44:44.209Z,73.98
2023-01-03T00:48:49.190Z,73.72
2023-01-03T00:52:52.155Z,73.90
2023-01-03T00:56:55.546Z,73.81
2023-01-03T01:00:59.113Z,73.41
2023-01-03T01:05:04.128Z,73.79
2023-01-03T01:09:09.540Z,74.43
2023-01-03T01:13:12.611Z,74.59
2023-01-03T01:17:22.287Z,74.26
2023-01-03T01:21:30.038Z,74.54
2023-01-03T01:25:36.066Z,74.78
2023-01-03T01:29:40.171Z,74.71
2023-01-03T01:33:43.402Z,74.39
2023-01-03T01:37:48.346Z,74.78
2023-01-03T01:42:18.359Z,74.24
2023-01-03T01:46:26.453Z,75.11
2023-01-03T01:50:36.357Z,74.81
2023-01-03T01:54:42.061Z,74.58
2023-01-03T01:58:49.723Z,75.13
2023-01-03T02:02:55.607Z,74.87
2023-01-03T02:06:59.432Z,74.36
2023-01-03T02:11:26.266Z,74.60
2023-01-03T02:15:41.791Z,74.39
2023-01-03T02:20:08.797Z,74.96
2023-01-03T02:24:44.670Z,75.07
2023-01-03T02:29:19.716Z,74.95
2023-01-03T02:33:32.869Z,74.93
2023-01-03T02:37:44.262Z,74.84
2023-01-03T02:41:51.747Z,74.69
2023-01-03T02:46:04.567Z,74.70
2023-01-03T02:50:12.644Z,74.36
2023-01-03T02:54:22.139Z,74.42
2023-01-03T02:58:29.592Z,74.26
2023-01-03T03:02:35.964Z,74.02
2023-01-03T03:06:49.082Z,74.07
2023-01-03T03:11:12.361Z,74.32
2023-01-03T03:15:18.910Z,74.32
2023-01-03T03:19:44.138Z,74.21
2023-01-03T03:24:08.838Z,73.99
2023-01-03T03:28:44.541Z,73.68
2023-01-03T03:32:52.087Z,74.03
2023-01-03T03:36:59.147Z,73.83
2023-01-03T03:41:30.376Z,73.32
2023-01-03T03:45:40.829Z,73.37
2023-01-03T03:49:48.643Z,73.26
2023-01-03T03:53:54.139Z,73.82
2023-01-03T03:58:02.761Z,74.15
2023-01-03T04:02:08.659Z,74.29
2023-01-03T04:06:15.368Z,74.48
2023-01-03T04:10:20.621Z,73.89
2023-01-03T04:14:25.439Z,74.28
2023-01-03T04:18:28.603Z,73.75
2023-01-03T04:22:31.929Z,73.50
2023-01-03T04:26:34.983Z,74.07
2023-01-03T04:30:39.804Z,73.75
2023-01-03T04:34:43.043Z,73.78
2023-01-03T04:38:46.235Z,73.53
2023-01-03T04:43:06.865Z,74.03
2023-01-03T04:47:11.389Z,73.80
2023-01-03T04:51:15.148Z,74.05
2023-01-03T04:55:18.569Z,73.62
2023-01-03T04:59:21.868Z,73.92
2023-01-03T05:03:28.083Z,73.64
2023-01-03T05:07:32.096Z,73.47
2023-01-03T05:11:35.112Z,73.73
2023-01-03T05:15:39.601Z,73.97
2023-01-03T05:19:57.827Z,73.84
2023-01-03T05:24:18.727Z,73.80
2023-01-03T05:28:24.173Z,73.98
2023-01-03T05:32:30.436Z,74.20
2023-01-03T05:36:35.200Z,73.85
2023-01-03T05:40:41.360Z,74.27
2023-01-03T05:44:44.868Z,74.25
2023-01-03T05:48:48.268Z,74.52
2023-01-03T05:52:52.851Z,74.48
2023-01-03T05:56:56.000Z,74.17
2023-01-03T06:00:59.550Z,73.97
2023-01-03T06:09:09.646Z,73.73
2023-01-03T06:13:12.756Z,74.11
2023-01-03T06:17:33.290Z,74.03
2023-01-03T06:21:37.187Z,74.18
2023-01-03T06:25:41.877Z,74.55
2023-01-03T06:29:45.116Z,74.89
2023-01-03T06:33:48.612Z,74.85
2023-01-03T06:37:51.571Z,74.55
2023-01-03T06:41:56.259Z,74.52
2023-01-03T06:46:18.818Z,74.83
2023-01-03T06:50:38.594Z,75.08
2023-01-03T06:54:41.829Z,74.87
2023-01-03T06:58:46.490Z,75.07
2023-01-03T07:02:50.088Z,74.94
2023-01-03T07:06:53.359Z,75.00
2023-01-03T07:10:57.030Z,74.28
2023-01-03T07:15:01.367Z,74.28
2023-01-03T07:19:05.875Z,74.17
2023-01-03T07:23:08.962Z,73.98
2023-01-03T07:27:13.403Z,74.22
2023-01-03T07:31:18.221Z,74.12
2023-01-03T07:35:21.584Z,74.17
2023-01-03T07:39:24.591Z,74.57
2023-01-03T07:43:40.137Z,74.45
2023-01-03T07:47:47.420Z,74.41
2023-01-03T07:51:50.685Z,74.69
2023-01-03T07:55:54.236Z,74.00
2023-01-03T07:59:57.677Z,74.25
2023-01-03T08:04:02.322Z,74.31
2023-01-03T08:08:08.506Z,74.31
2023-01-03T08:12:26.252Z,73.97
2023-01-03T08:16:29.296Z,74.19
2023-01-03T08:20:34.080Z,73.73
2023-01-03T08:24:37.002Z,73.67
2023-01-03T08:28:40.625Z,73.47
2023-01-03T08:32:44.044Z,73.49
2023-01-03T08:36:53.136Z,73.85
2023-01-03T08:40:58.308Z,73.72
2023-01-03T08:45:04.387Z,73.93
2023-01-03T08:49:08.007Z,74.07
2023-01-03T08:53:12.888Z,74.11
2023-01-03T08:57:15.947Z,74.77
2023-01-03T09:01:21.110Z,74.55
2023-01-03T09:05:24.255Z,74.26
2023-01-03T09:13:45.561Z,74.79
2023-01-03T09:17:49.807Z,74.95
2023-01-03T09:21:52.888Z,75.37
2023-01-03T09:25:56.274Z,75.84
2023-01-03T09:30:00.839Z,75.88
2023-01-03T09:34:05.979Z,75.94
2023-01-03T09:38:09.489Z,75.72
2023-01-03T09:42:39.400Z,75.39
2023-01-03T09:46:44.093Z,75.23
2023-01-03T09:51:17.083Z,74.92
2023-01-03T09:55:43.990Z,75.10
2023-01-03T10:00:04.762Z,74.71
2023-01-03T10:04:30.262Z,74.72
2023-01-03T10:08:43.500Z,74.55
2023-01-03T10:13:03.676Z,74.18
2023-01-03T10:17:16.175Z,73.18
2023-01-03T10:21:28.193Z,73.15
2023-01-03T10:25:32.149Z,72.50
2023-01-03T10:29:36.218Z,72.10
2023-01-03T10:33:42.610Z,72.24
2023-01-03T10:37:48.180Z,72.26
2023-01-03T10:41:52.780Z,71.44
2023-01-03T10:45:59.185Z,71.33
2023-01-03T10:50:03.933Z,71.04
2023-01-03T10:54:22.745Z,71.34
2023-01-03T10:58:34.145Z,70.60
2023-01-03T11:02:45.145Z,70.75
2023-01-03T11:07:00.444Z,71.53
2023-01-03T11:11:05.699Z,71.39
2023-01-03T11:15:18.398Z,71.75
2023-01-03T11:19:21.643Z,71.23
2023-01-03T11:23:36.525Z,71.32
2023-01-03T11:28:15.675Z,71.90
2023-01-03T11:32:44.028Z,71.66
2023-01-03T11:36:53.156Z,71.42
2023-01-03T11:41:07.268Z,71.84
2023-01-03T11:45:44.730Z,72.52
2023-01-03T11:50:04.826Z,72.04
2023-01-03T11:54:21.098Z,72.17
2023-01-03T11:58:44.775Z,73.08
2023-01-03T12:03:20.181Z,73.18
2023-01-03T12:07:47.684Z,72.88
2023-01-03T12:12:30.156Z,72.91
2023-01-03T12:16:38.538Z,72.39
2023-01-03T12:20:49.412Z,72.56
2023-01-03T12:25:04.391Z,72.57
2023-01-03T12:29:18.323Z,72.78
2023-01-03T12:33:31.447Z,72.60
2023-01-03T12:37:40.227Z,72.47
2023-01-03T12:41:47.858Z,72.49
2023-01-03T12:45:58.129Z,72.58
2023-01-03T12:50:07.601Z,72.83
2023-01-03T12:54:29.788Z,73.32
2023-01-03T12:58:45.633Z,73.55
2023-01-03T13:02:53.726Z,73.05
2023-01-03T13:07:05.543Z,72.84
2023-01-03T13:11:19.396Z,73.05
2023-01-03T13:15:36.178Z,72.91
2023-01-03T13:19:57.047Z,72.95
2023-01-03T13:24:40.637Z,72.70
2023-01-03T13:28:45.371Z,72.92
2023-01-03T13:32:54.762Z,72.90
2023-01-03T13:37:20.969Z,72.96
2023-01-03T13:41:38.094Z,72.50
2023-01-03T13:46:00.248Z,72.74
2023-01-03T13:50:04.557Z,72.61
2023-01-03T13:54:37.865Z,73.02
2023-01-03T13:58:45.127Z,72.76
2023-01-03T14:03:18.117Z,73.14
2023-01-03T14:07:40.560Z,73.58
2023-01-03T14:12:16.247Z,73.17
2023-01-03T14:16:24.269Z,73.18
2023-01-03T14:20:35.552Z,72.97
2023-01-03T14:24:49.616Z,73.22
2023-01-03T14:28:56.323Z,73.06
2023-01-03T14:33:00.400Z,72.91
2023-01-03T14:37:08.231Z,73.31
2023-01-03T14:41:28.231Z,73.33
2023-01-03T14:45:31.579Z,73.33
2023-01-03T14:49:44.217Z,73.40
2023-01-03T14:53:48.875Z,73.54
2023-01-03T14:57:53.049Z,73.60
2023-01-03T15:01:57.712Z,73.62
2023-01-03T15:06:02.661Z,73.55
2023-01-03T15:10:18.707Z,73.93
2023-01-03T15:14:24.056Z,73.62
2023-01-03T15:18:31.467Z,73.79
2023-01-03T15:22:40.142Z,73.96
2023-01-03T15:26:47.465Z,73.88
2023-01-03T15:30:51.214Z,74.01
2023-01-03T15:34:54.545Z,74.24
2023-01-03T15:38:57.720Z,74.42
2023-01-03T15:43:22.358Z,74.37
2023-01-03T15:47:30.739Z,74.48
2023-01-03T15:51:34.874Z,74.40
2023-01-03T15:55:38.290Z,74.47
2023-01-03T15:59:43.868Z,74.60
2023-01-03T16:03:49.256Z,74.75
2023-01-03T16:07:52.721Z,74.78
2023-01-03T16:11:59.845Z,74.77
2023-01-03T16:16:04.701Z,74.66
2023-01-03T16:20:11.752Z,74.69
2023-01-03T16:24:18.339Z,74.68
2023-01-03T16:28:21.525Z,74.88
2023-01-03T16:32:29.266Z,74.84
2023-01-03T16:36:37.506Z,74.67
2023-01-03T16:40:41.115Z,74.51
2023-01-03T16:44:46.991Z,74.62
2023-01-03T16:48:54.562Z,74.70
2023-01-03T16:52:58.409Z,74.70
2023-01-03T16:57:01.329Z,74.86
2023-01-03T17:01:06.352Z,75.03
2023-01-03T17:05:11.582Z,74.92
2023-01-03T17:09:17.744Z,75.15
2023-01-03T17:13:41.091Z,75.30
2023-01-03T17:17:44.733Z,75.45
2023-01-03T17:21:51.439Z,75.40
2023-01-03T17:25:55.276Z,75.31
2023-01-03T17:30:01.875Z,75.58
2023-01-03T17:34:19.093Z,75.68
2023-01-03T17:38:26.130Z,75.85
2023-01-03T17:42:30.534Z,75.84
2023-01-03T17:46:51.385Z,76.01
2023-01-03T17:50:57.105Z,76.02
2023-01-03T17:55:02.057Z,75.80
2023-01-03T17:59:06.740Z,76.00
2023-01-03T18:03:11.617Z,75.95
2023-01-03T18:07:21.589Z,75.82
2023-01-03T18:11:28.548Z,75.89
2023-01-03T18:15:31.735Z,75.70
2023-01-03T18:19:35.097Z,75.76
2023-01-03T18:23:40.327Z,75.97
2023-01-03T18:27:48.861Z,75.82
2023-01-03T18:31:52.243Z,75.58
2023-01-03T18:35:55.799Z,75.83
2023-01-03T18:39:59.336Z,75.79
2023-01-03T18:44:03.902Z,75.58
2023-01-03T18:48:07.736Z,75.84
2023-01-03T18:52:23.574Z,76.00
2023-01-03T18:56:33.003Z,75.63
2023-01-03T19:00:37.993Z,75.82
2023-01-03T19:04:43.855Z,75.71
2023-01-03T19:08:50.417Z,75.70
2023-01-03T19:12:58.465Z,75.21
2023-01-03T19:17:04.727Z,75.33
2023-01-03T19:21:13.735Z,75.32
2023-01-03T19:25:33.804Z,75.78
2023-01-03T19:30:23.869Z,75.67
2023-01-03T19:34:31.066Z,75.20
2023-01-03T19:38:34.278Z,75.14
2023-01-03T19:42:49.383Z,75.08
2023-01-03T19:46:52.467Z,75.25
2023-01-03T19:50:57.360Z,75.48
2023-01-03T19:55:00.750Z,75.40
2023-01-03T19:59:05.650Z,75.42
2023-01-03T20:03:28.314Z,75.42
2023-01-03T20:07:34.383Z,75.63
2023-01-03T20:11:45.568Z,75.84
2023-01-03T20:15:50.768Z,75.99
2023-01-03T20:19:55.142Z,75.96
2023-01-03T20:24:03.755Z,75.87
2023-01-03T20:28:18.294Z,75.87
2023-01-03T20:32:22.169Z,75.38
2023-01-03T20:36:30.189Z,75.20
2023-01-03T20:40:48.432Z,74.97
2023-01-03T20:44:54.813Z,74.76
2023-01-03T20:49:02.220Z,74.90
2023-01-03T20:53:09.843Z,75.22
2023-01-03T20:57:29.871Z,75.41
2023-01-03T21:01:33.587Z,75.59
2023-01-03T21:05:37.538Z,75.49
2023-01-03T21:09:41.022Z,75.83
2023-01-03T21:13:47.568Z,75.51
2023-01-03T21:17:51.430Z,75.38
2023-01-03T21:22:24.393Z,75.46
2023-01-03T21:26:30.607Z,75.78
2023-01-03T21:30:39.016Z,76.08
2023-01-03T21:34:42.631Z,76.27
2023-01-03T21:38:46.327Z,76.38
2023-01-03T21:43:05.395Z,76.44
2023-01-03T21:47:11.877Z,76.43
2023-01-03T21:51:20.836Z,76.59
2023-01-03T21:55:35.579Z,76.74
2023-01-03T21:59:39.686Z,76.77
2023-01-03T22:04:03.980Z,76.90
2023-01-03T22:08:08.123Z,76.80
2023-01-03T22:12:16.338Z,76.28
2023-01-03T22:16:20.128Z,76.29
2023-01-03T22:20:26.928Z,76.54
2023-01-03T22:24:30.246Z,76.56
2023-01-03T22:28:36.991Z,76.33
2023-01-03T22:32:40.311Z,76.08
2023-01-03T22:36:45.207Z,75.83
2023-01-03T22:40:48.133Z,75.87
2023-01-03T22:44:51.557Z,75.82
2023-01-03T22:48:56.930Z,75.60
2023-01-03T22:53:05.944Z,75.82
2023-01-03T22:57:09.314Z,76.14
2023-01-03T23:01:19.284Z,76.40
2023-01-03T23:05:32.144Z,76.35
2023-01-03T23:09:39.856Z,76.69
2023-01-03T23:13:45.372Z,76.47
2023-01-03T23:18:01.382Z,77.01
2023-01-03T23:22:05.811Z,76.64
2023-01-03T23:26:10.984Z,76.84
2023-01-03T23:30:15.386Z,76.48
2023-01-03T23:34:18.363Z,76.69
2023-01-03T23:38:21.697Z,76.43
2023-01-03T23:42:26.333Z,76.30
2023-01-03T23:46:29.548Z,76.27
2023-01-03T23:50:32.574Z,76.10
2023-01-03T23:54:36.500Z,75.40
2023-01-03T23:58:41.706Z,75.47
